Time;durP1;ratioP1;P1;durP2;ratioP2;P2;SDS_P1;SDS_P2;PMS_P1;PMS_P2;Temp;Humidity;BMP_temperature;BMP_pressure;BME280_temperature;BME280_humidity;BME280_pressure;Samples;Min_cycle;Max_cycle;Signal;HPM_P1;HPM_P2
2022/06/01 00:00:17;;;;;;;6.43;3.73;;;14.80;43.10;;;;;;4974214;28;20589;-72
2022/06/01 00:02:42;;;;;;;5.87;4.30;;;14.80;43.30;;;;;;4970879;28;20230;-72
2022/06/01 00:05:08;;;;;;;9.13;3.53;;;14.70;42.60;;;;;;4967702;28;20261;-73
2022/06/01 00:07:33;;;;;;;6.23;3.80;;;14.50;43.30;;;;;;4966564;28;20198;-72
2022/06/01 00:10:06;;;;;;;4.00;3.60;;;14.60;52.00;;;;;;4976267;28;20183;-73
2022/06/01 00:12:34;;;;;;;5.73;3.87;;;14.60;53.80;;;;;;4948592;28;20249;-73
2022/06/01 00:15:00;;;;;;;4.07;3.53;;;14.50;56.20;;;;;;4972795;28;20452;-73
2022/06/01 00:17:26;;;;;;;8.73;3.80;;;14.50;56.70;;;;;;4959436;28;20489;-72
2022/06/01 00:19:52;;;;;;;5.20;3.70;;;14.40;57.70;;;;;;4972499;28;20877;-73
2022/06/01 00:22:17;;;;;;;6.63;3.73;;;14.30;59.40;;;;;;4971680;28;20635;-72
2022/06/01 00:24:45;;;;;;;3.90;3.50;;;14.30;55.40;;;;;;4975266;28;20214;-72
2022/06/01 00:27:12;;;;;;;6.30;3.63;;;14.20;61.00;;;;;;4966617;28;20176;-72
2022/06/01 00:29:38;;;;;;;7.20;4.40;;;14.10;65.30;;;;;;4965426;28;20442;-72
2022/06/01 00:32:05;;;;;;;5.67;3.87;;;14.00;71.40;;;;;;4973711;28;20473;-72
2022/06/01 00:34:31;;;;;;;4.13;3.73;;;14.00;72.20;;;;;;4973625;28;20454;-73
2022/06/01 00:36:56;;;;;;;3.60;3.30;;;14.00;73.90;;;;;;4971663;28;20460;-72
2022/06/01 00:39:22;;;;;;;7.27;3.70;;;13.90;73.80;;;;;;4972770;28;20195;-72
2022/06/01 00:41:47;;;;;;;7.90;3.53;;;13.90;73.70;;;;;;4968468;28;20182;-72
2022/06/01 00:44:13;;;;;;;7.03;3.67;;;13.80;68.50;;;;;;4975491;28;20174;-72
2022/06/01 00:46:38;;;;;;;3.60;3.30;;;13.80;68.60;;;;;;4969192;28;20190;-72
2022/06/01 00:49:09;;;;;;;9.10;3.53;;;13.80;79.90;;;;;;4983932;28;20653;-72
2022/06/01 00:51:35;;;;;;;6.00;3.60;;;13.80;78.10;;;;;;4954894;28;20175;-73
2022/06/01 00:54:01;;;;;;;5.40;3.97;;;13.70;74.20;;;;;;4964099;28;20437;-72
2022/06/01 00:56:32;;;;;;;6.17;4.60;;;13.70;77.60;;;;;;4963180;28;20656;-72
2022/06/01 00:59:02;;;;;;;6.53;3.80;;;13.80;72.40;;;;;;4965943;28;20183;-72
2022/06/01 01:01:29;;;;;;;9.13;3.67;;;13.90;78.90;;;;;;4978912;28;20487;-72
2022/06/01 01:03:57;;;;;;;5.93;4.07;;;14.00;74.80;;;;;;4978344;28;20937;-72
2022/06/01 01:06:24;;;;;;;5.50;3.67;;;14.00;77.50;;;;;;4975672;28;20435;-73
2022/06/01 01:08:51;;;;;;;5.17;3.53;;;13.90;78.00;;;;;;4974071;28;20431;-72
2022/06/01 01:11:23;;;;;;;5.33;3.93;;;13.90;75.70;;;;;;4969158;28;20837;-72
2022/06/01 01:13:51;;;;;;;4.77;4.17;;;13.90;74.10;;;;;;4973126;28;21041;-72
2022/06/01 01:16:17;;;;;;;4.70;3.40;;;13.90;76.10;;;;;;4972930;28;20447;-72
2022/06/01 01:18:45;;;;;;;4.17;3.70;;;13.90;72.30;;;;;;4965688;28;20439;-72
2022/06/01 01:21:36;;;;;;;5.40;3.80;;;14.00;82.30;;;;;;4969839;28;20508;-72
2022/06/01 01:24:29;;;;;;;4.10;3.70;;;14.00;72.50;;;;;;4975971;28;20980;-72
2022/06/01 01:26:56;;;;;;;4.10;3.70;;;14.00;76.30;;;;;;4985187;28;20508;-72
2022/06/01 01:29:38;;;;;;;5.27;3.97;;;14.10;72.70;;;;;;4966046;28;20593;-72
2022/06/01 01:32:06;;;;;;;4.40;3.67;;;14.00;73.40;;;;;;4964225;28;20406;-72
2022/06/01 01:34:35;;;;;;;7.73;4.17;;;14.10;75.20;;;;;;4970888;28;20443;-72
2022/06/01 01:37:04;;;;;;;4.67;3.83;;;14.10;73.60;;;;;;4968720;28;20439;-72
2022/06/01 01:39:32;;;;;;;5.80;3.83;;;14.10;70.60;;;;;;4984421;28;20429;-72
2022/06/01 01:41:58;;;;;;;6.00;3.37;;;14.10;74.10;;;;;;4977482;28;20955;-72
2022/06/01 01:44:32;;;;;;;4.87;3.90;;;14.20;73.80;;;;;;4967808;28;20467;-72
2022/06/01 01:46:58;;;;;;;3.73;3.43;;;14.30;64.40;;;;;;4969568;28;20184;-72
2022/06/01 01:49:30;;;;;;;4.23;3.70;;;14.30;64.60;;;;;;4973863;28;20574;-72
2022/06/01 01:51:59;;;;;;;4.60;3.50;;;14.30;64.20;;;;;;4978012;28;20434;-72
2022/06/01 01:55:02;;;;;;;10.17;3.43;;;14.30;68.30;;;;;;4969280;28;20545;-72
2022/06/01 01:57:33;;;;;;;6.13;3.83;;;14.40;66.20;;;;;;4966658;28;20412;-72
2022/06/01 02:00:10;;;;;;;10.57;3.50;;;14.40;64.90;;;;;;4969152;28;21147;-73
2022/06/01 02:02:46;;;;;;;5.40;3.30;;;14.40;62.80;;;;;;4976710;28;20478;-72
2022/06/01 02:06:06;;;;;;;3.10;2.80;;;14.40;67.60;;;;;;4975678;28;20473;-72
2022/06/01 02:08:37;;;;;;;5.43;3.53;;;14.30;67.10;;;;;;4938544;28;20926;-72
2022/06/01 02:14:00;;;;;;;7.50;3.33;;;14.40;58.70;;;;;;4974845;28;20441;-72
2022/06/01 02:16:31;;;;;;;3.33;3.03;;;14.40;58.60;;;;;;4974072;28;20573;-72
2022/06/01 02:19:00;;;;;;;3.70;3.40;;;14.40;57.70;;;;;;4967855;28;20785;-72
2022/06/01 02:21:27;;;;;;;4.00;3.37;;;14.50;54.60;;;;;;4978246;28;20497;-72
2022/06/01 02:23:55;;;;;;;4.30;3.60;;;14.70;53.10;;;;;;4972038;28;20424;-72
2022/06/01 02:26:21;;;;;;;4.00;3.03;;;14.70;50.80;;;;;;4976271;28;20442;-72
2022/06/01 02:28:53;;;;;;;4.70;3.60;;;14.80;46.60;;;;;;4968843;28;20411;-72
2022/06/01 02:31:19;;;;;;;4.60;3.60;;;14.80;49.60;;;;;;4977139;28;20506;-72
2022/06/01 02:33:47;;;;;;;3.87;3.47;;;14.80;46.90;;;;;;4969870;28;20443;-72
2022/06/01 02:36:16;;;;;;;4.10;3.40;;;14.80;43.90;;;;;;4968231;28;20465;-72
2022/06/01 02:38:46;;;;;;;3.97;3.40;;;14.80;43.50;;;;;;4977633;28;20502;-72
2022/06/01 02:43:56;;;;;;;5.63;3.50;;;14.80;46.90;;;;;;4968585;28;20426;-72
2022/06/01 02:46:22;;;;;;;3.73;3.37;;;14.70;44.80;;;;;;4977563;28;20443;-72
2022/06/01 02:48:47;;;;;;;4.40;3.57;;;14.60;45.60;;;;;;4969399;28;20194;-72
2022/06/01 02:51:15;;;;;;;5.10;3.57;;;14.60;48.50;;;;;;4973113;28;20434;-72
2022/06/01 02:53:41;;;;;;;3.37;3.07;;;14.60;44.50;;;;;;4972596;28;20272;-72
2022/06/01 02:56:06;;;;;;;3.77;3.20;;;14.50;45.80;;;;;;4976225;28;21061;-72
2022/06/01 02:58:34;;;;;;;5.90;3.40;;;14.40;49.10;;;;;;4963269;28;20191;-72
2022/06/01 03:01:00;;;;;;;6.10;3.50;;;14.30;52.50;;;;;;4974396;28;20199;-72
2022/06/01 03:03:26;;;;;;;3.50;3.20;;;14.30;54.10;;;;;;4973348;28;20427;-72
2022/06/01 03:05:52;;;;;;;5.07;3.70;;;14.20;55.80;;;;;;4973643;28;20463;-72
2022/06/01 03:08:18;;;;;;;3.87;3.47;;;14.10;60.00;;;;;;4977014;28;20580;-72
2022/06/01 03:10:44;;;;;;;5.33;3.20;;;14.10;64.60;;;;;;4969721;28;20278;-72
2022/06/01 03:13:10;;;;;;;4.60;3.70;;;14.20;67.20;;;;;;4970597;28;20206;-72
2022/06/01 03:15:36;;;;;;;4.00;3.60;;;14.20;71.10;;;;;;4971584;28;20634;-72
2022/06/01 03:18:02;;;;;;;5.00;4.03;;;14.20;71.20;;;;;;4976952;28;20490;-72
2022/06/01 03:20:28;;;;;;;6.73;3.57;;;14.20;69.10;;;;;;4975087;28;20225;-73
2022/06/01 03:22:54;;;;;;;5.77;3.60;;;14.20;66.50;;;;;;4978029;28;20558;-73
2022/06/01 03:25:22;;;;;;;4.23;3.70;;;14.20;67.20;;;;;;4974756;28;20458;-73
2022/06/01 03:27:49;;;;;;;4.90;3.60;;;14.30;63.40;;;;;;4971367;28;20271;-73
2022/06/01 03:30:16;;;;;;;5.13;3.40;;;14.30;61.40;;;;;;4973566;28;20504;-73
2022/06/01 03:32:43;;;;;;;13.50;4.27;;;14.30;61.00;;;;;;4980361;28;20426;-73
2022/06/01 03:35:10;;;;;;;4.83;3.80;;;14.40;60.90;;;;;;4971248;28;20893;-73
2022/06/01 03:37:36;;;;;;;3.87;3.47;;;14.40;62.00;;;;;;4971006;28;20504;-73
2022/06/01 03:40:02;;;;;;;6.37;3.67;;;14.40;65.00;;;;;;4981241;28;20534;-72
2022/06/01 03:42:30;;;;;;;5.80;4.03;;;14.40;61.70;;;;;;4977002;28;20867;-73
2022/06/01 03:47:40;;;;;;;4.83;3.30;;;14.30;60.80;;;;;;4968428;28;20486;-72
2022/06/01 03:50:06;;;;;;;5.33;4.10;;;14.20;64.50;;;;;;4978500;28;20422;-73
2022/06/01 03:52:32;;;;;;;6.17;4.20;;;14.00;70.20;;;;;;4977366;28;20588;-73
2022/06/01 03:54:58;;;;;;;4.53;4.10;;;13.90;68.10;;;;;;4973036;28;20451;-73
2022/06/01 03:57:23;;;;;;;5.20;4.10;;;13.90;66.40;;;;;;4970558;28;20191;-73
2022/06/01 03:59:48;;;;;;;5.13;4.00;;;13.80;72.50;;;;;;4961426;28;20215;-72
2022/06/01 04:02:14;;;;;;;4.90;3.53;;;13.70;73.30;;;;;;4963140;28;20238;-72
2022/06/01 04:04:39;;;;;;;9.60;4.00;;;13.70;74.00;;;;;;4965784;28;20212;-72
2022/06/01 04:07:05;;;;;;;5.73;4.00;;;13.60;72.80;;;;;;4971324;28;20194;-72
2022/06/01 04:09:30;;;;;;;8.03;3.47;;;13.60;73.60;;;;;;4985068;28;20303;-72
2022/06/01 04:11:56;;;;;;;4.63;3.80;;;13.60;73.80;;;;;;4980368;28;20613;-72
2022/06/01 04:14:23;;;;;;;5.80;3.87;;;13.70;75.00;;;;;;4967653;28;20758;-72
2022/06/01 04:16:49;;;;;;;8.20;3.47;;;13.70;72.80;;;;;;4974319;28;20567;-72
2022/06/01 04:19:15;;;;;;;4.60;3.43;;;13.80;76.90;;;;;;4976391;28;20424;-72
2022/06/01 04:21:44;;;;;;;5.00;3.90;;;13.80;72.90;;;;;;4972570;28;20343;-72
2022/06/01 04:24:13;;;;;;;4.87;4.00;;;13.90;67.20;;;;;;4969474;28;20238;-73
2022/06/01 04:26:39;;;;;;;6.73;3.97;;;13.90;68.20;;;;;;4968247;28;20819;-73
2022/06/01 04:29:05;;;;;;;7.43;3.83;;;14.10;68.80;;;;;;4963968;28;20550;-72
2022/06/01 04:31:31;;;;;;;5.80;3.63;;;14.20;68.00;;;;;;4963268;28;20191;-72
2022/06/01 04:33:57;;;;;;;4.37;3.57;;;14.30;63.30;;;;;;4975189;28;20187;-73
2022/06/01 04:36:22;;;;;;;4.80;3.60;;;14.50;62.10;;;;;;4966687;28;21132;-73
2022/06/01 04:38:48;;;;;;;4.20;3.80;;;14.80;61.70;;;;;;4975868;28;20187;-72
2022/06/01 04:41:14;;;;;;;4.17;3.77;;;14.90;57.40;;;;;;4972419;28;20210;-73
2022/06/01 04:43:39;;;;;;;4.40;4.00;;;15.10;53.20;;;;;;4969852;28;20191;-72
2022/06/01 04:46:05;;;;;;;5.10;3.80;;;15.30;51.20;;;;;;4976118;28;20299;-73
2022/06/01 04:48:30;;;;;;;5.33;3.73;;;15.40;48.70;;;;;;4972688;28;20744;-73
2022/06/01 04:50:58;;;;;;;5.90;3.63;;;15.30;49.00;;;;;;4980524;28;20878;-73
2022/06/01 04:53:24;;;;;;;5.83;3.83;;;15.30;52.70;;;;;;4973859;28;20202;-73
2022/06/01 04:55:50;;;;;;;7.60;4.10;;;15.20;55.20;;;;;;4968030;28;20785;-73
2022/06/01 04:58:16;;;;;;;5.23;4.07;;;15.20;53.10;;;;;;4967997;28;20434;-73
2022/06/01 05:00:43;;;;;;;5.20;3.70;;;15.10;56.10;;;;;;4964448;28;20203;-73
2022/06/01 05:03:09;;;;;;;4.87;4.40;;;15.10;54.80;;;;;;4970105;28;20187;-73
2022/06/01 05:05:37;;;;;;;11.70;4.83;;;15.10;57.30;;;;;;4972682;28;20542;-73
2022/06/01 05:08:03;;;;;;;4.03;3.60;;;15.00;59.50;;;;;;4975822;28;20423;-73
2022/06/01 05:10:29;;;;;;;5.80;4.40;;;15.00;57.80;;;;;;4987074;28;20472;-72
2022/06/01 05:12:54;;;;;;;11.43;4.63;;;15.10;60.80;;;;;;4967708;28;20431;-73
2022/06/01 05:15:20;;;;;;;7.30;4.73;;;15.10;58.90;;;;;;4976127;28;20713;-72
2022/06/01 05:17:45;;;;;;;9.50;4.60;;;15.10;65.20;;;;;;4985275;28;20191;-73
2022/06/01 05:20:13;;;;;;;5.07;4.33;;;15.10;63.10;;;;;;4974023;28;20293;-72
2022/06/01 05:22:39;;;;;;;8.80;4.73;;;15.10;64.70;;;;;;4982297;28;20222;-73
2022/06/01 05:25:05;;;;;;;5.10;4.60;;;15.20;57.70;;;;;;4982782;28;20483;-72
2022/06/01 05:27:31;;;;;;;8.00;4.90;;;15.20;59.70;;;;;;4965737;28;20625;-72
2022/06/01 05:29:57;;;;;;;6.00;4.20;;;15.20;59.80;;;;;;4967790;28;20445;-72
2022/06/01 05:32:23;;;;;;;5.10;3.90;;;15.30;55.60;;;;;;4976306;28;20180;-72
2022/06/01 05:34:48;;;;;;;5.80;4.27;;;15.40;55.60;;;;;;4968737;28;20313;-73
2022/06/01 05:37:14;;;;;;;11.53;3.83;;;15.50;57.30;;;;;;4975951;28;20187;-72
2022/06/01 05:39:39;;;;;;;5.40;4.63;;;15.50;55.90;;;;;;4979275;28;20234;-72
2022/06/01 05:42:05;;;;;;;4.40;4.00;;;15.60;51.50;;;;;;4962289;28;20632;-72
2022/06/01 05:44:31;;;;;;;7.10;4.70;;;15.60;51.10;;;;;;4975761;28;20218;-73
2022/06/01 05:46:58;;;;;;;5.63;4.70;;;15.60;46.70;;;;;;4971025;28;20500;-73
2022/06/01 05:49:25;;;;;;;6.70;5.10;;;15.70;51.30;;;;;;4982481;28;20532;-73
2022/06/01 05:51:50;;;;;;;6.57;4.63;;;15.60;43.40;;;;;;4969313;28;20514;-73
2022/06/01 05:54:16;;;;;;;6.03;4.40;;;15.70;40.70;;;;;;4979101;28;20539;-72
2022/06/01 05:56:42;;;;;;;5.70;4.60;;;15.60;43.10;;;;;;4968650;28;20682;-72
2022/06/01 05:59:07;;;;;;;7.30;4.70;;;15.70;44.80;;;;;;4970207;28;20188;-72
2022/06/01 06:01:33;;;;;;;8.03;5.00;;;15.70;43.00;;;;;;4969178;28;20223;-72
2022/06/01 06:03:59;;;;;;;7.97;4.93;;;15.80;43.90;;;;;;4977689;28;20278;-72
2022/06/01 06:06:25;;;;;;;5.57;4.93;;;;;;;;;;4963358;28;20180;-74
2022/06/01 06:08:55;;;;;;;6.83;5.10;;;15.90;40.70;;;;;;4974223;28;20687;-72
2022/06/01 06:11:26;;;;;;;7.20;4.70;;;16.00;43.00;;;;;;4970580;28;20501;-72
2022/06/01 06:13:51;;;;;;;7.60;4.30;;;16.10;43.10;;;;;;4971702;28;20521;-72
2022/06/01 06:16:17;;;;;;;7.53;4.63;;;16.20;43.20;;;;;;4982537;28;20730;-73
2022/06/01 06:18:43;;;;;;;4.73;4.33;;;16.30;43.20;;;;;;4968797;28;20211;-72
2022/06/01 06:21:09;;;;;;;11.10;5.10;;;16.30;43.20;;;;;;4973226;28;20457;-73
2022/06/01 06:23:35;;;;;;;5.20;4.70;;;16.30;43.20;;;;;;4979073;28;20176;-73
2022/06/01 06:26:01;;;;;;;7.53;4.40;;;16.40;43.40;;;;;;4974001;28;20195;-72
2022/06/01 06:28:27;;;;;;;5.87;4.97;;;16.50;43.50;;;;;;4965281;28;20183;-72
2022/06/01 06:30:53;;;;;;;8.00;4.70;;;16.50;43.10;;;;;;4956087;28;20882;-70
2022/06/01 06:33:18;;;;;;;6.40;4.37;;;16.60;43.20;;;;;;4970734;28;20535;-71
2022/06/01 06:35:44;;;;;;;5.30;4.80;;;16.60;42.60;;;;;;4970331;28;20431;-72
2022/06/01 06:38:11;;;;;;;7.37;4.70;;;16.70;36.10;;;;;;4974042;28;20187;-73
2022/06/01 06:40:37;;;;;;;5.30;4.43;;;16.80;39.60;;;;;;4982714;28;20285;-73
2022/06/01 06:43:04;;;;;;;6.77;4.70;;;17.00;39.60;;;;;;4987287;28;20421;-71
2022/06/01 06:45:30;;;;;;;5.57;4.47;;;17.10;34.80;;;;;;4969086;28;20455;-74
2022/06/01 06:47:55;;;;;;;5.10;4.60;;;17.20;28.10;;;;;;4963814;28;20432;-73
2022/06/01 06:50:22;;;;;;;10.03;4.73;;;17.40;27.70;;;;;;4970604;28;20913;-73
2022/06/01 06:52:48;;;;;;;7.43;4.27;;;17.50;27.20;;;;;;4973366;28;20175;-73
2022/06/01 06:55:14;;;;;;;6.53;4.80;;;17.70;19.80;;;;;;4976830;28;20451;-74
2022/06/01 06:57:40;;;;;;;11.33;4.40;;;17.80;17.10;;;;;;4966183;28;20325;-73
2022/06/01 07:00:08;;;;;;;9.87;4.30;;;18.00;13.90;;;;;;4965564;28;20447;-73
2022/06/01 07:02:35;;;;;;;5.10;3.63;;;18.10;2.60;;;;;;4965559;28;20184;-73
2022/06/01 07:05:02;;;;;;;9.10;4.30;;;18.20;2.80;;;;;;4982077;28;20924;-71
2022/06/01 07:07:27;;;;;;;6.20;4.50;;;18.20;4.60;;;;;;4969860;28;20418;-71
2022/06/01 07:09:53;;;;;;;8.40;3.90;;;18.40;4.60;;;;;;4968829;28;20563;-74
2022/06/01 07:12:18;;;;;;;7.90;4.27;;;18.50;1.00;;;;;;4968985;28;20184;-74
2022/06/01 07:14:44;;;;;;;12.40;3.80;;;18.60;1.00;;;;;;4967688;28;20284;-74
2022/06/01 07:17:09;;;;;;;6.90;3.93;;;18.80;1.00;;;;;;4970709;28;20182;-74
2022/06/01 07:19:35;;;;;;;6.77;4.40;;;19.00;1.00;;;;;;4972497;28;20210;-74
2022/06/01 07:22:00;;;;;;;5.30;4.27;;;19.20;1.00;;;;;;4968113;28;20172;-74
2022/06/01 07:24:26;;;;;;;7.03;4.10;;;19.40;1.00;;;;;;4964661;28;20203;-74
2022/06/01 07:26:51;;;;;;;10.33;4.50;;;19.60;1.00;;;;;;4960925;28;20632;-74
2022/06/01 07:29:18;;;;;;;9.33;4.80;;;19.70;1.00;;;;;;4961218;28;20200;-75
2022/06/01 07:31:45;;;;;;;4.93;3.93;;;19.80;1.00;;;;;;4967907;28;20697;-74
2022/06/01 07:34:10;;;;;;;8.03;4.10;;;19.90;1.00;;;;;;4966965;28;20914;-75
2022/06/01 07:36:37;;;;;;;6.00;4.00;;;19.90;1.00;;;;;;4964675;28;20427;-75
2022/06/01 07:44:40;;;;;;;6.67;3.93;;;20.50;1.00;;;;;;4954768;28;21457;-73
2022/06/01 07:47:06;;;;;;;7.23;4.20;;;20.70;1.00;;;;;;4966299;28;20443;-75
2022/06/01 07:49:32;;;;;;;6.03;3.87;;;20.80;1.00;;;;;;4968432;28;20943;-74
2022/06/01 07:51:57;;;;;;;12.73;5.07;;;21.00;1.00;;;;;;4963304;28;20443;-75
2022/06/01 07:54:24;;;;;;;7.23;4.60;;;21.10;1.00;;;;;;4963213;28;20202;-74
2022/06/01 07:56:50;;;;;;;9.43;4.90;;;21.10;1.00;;;;;;4963955;28;20602;-73
2022/06/01 07:59:16;;;;;;;7.67;4.93;;;21.00;1.00;;;;;;4960713;28;20738;-73
2022/06/01 08:01:42;;;;;;;11.50;5.57;;;21.20;1.00;;;;;;4965696;28;20498;-73
2022/06/01 08:04:09;;;;;;;9.40;4.80;;;21.40;1.00;;;;;;4975843;28;20938;-74
2022/06/01 08:06:36;;;;;;;10.63;4.97;;;21.70;1.00;;;;;;4969614;28;20539;-74
2022/06/01 08:09:03;;;;;;;7.00;4.67;;;21.90;1.00;;;;;;4969750;28;20481;-73
2022/06/01 08:14:14;;;;;;;8.00;4.77;;;22.40;1.00;;;;;;4964558;28;20665;-74
2022/06/01 08:16:41;;;;;;;10.50;4.57;;;22.40;1.00;;;;;;4966481;28;20423;-73
2022/06/01 08:19:08;;;;;;;5.57;4.20;;;22.40;1.00;;;;;;4975370;28;20538;-74
2022/06/01 08:21:34;;;;;;;7.63;4.80;;;22.50;1.00;;;;;;4956628;28;20451;-73
2022/06/01 08:24:00;;;;;;;10.87;4.40;;;;;;;;;;4954632;28;20854;-74
2022/06/01 08:26:26;;;;;;;9.37;5.30;;;22.90;1.00;;;;;;4969592;28;20616;-74
2022/06/01 08:28:51;;;;;;;5.80;4.43;;;23.10;1.00;;;;;;4967329;28;20191;-73
2022/06/01 08:31:17;;;;;;;7.40;4.87;;;22.90;1.00;;;;;;4967820;28;20189;-74
2022/06/01 08:33:43;;;;;;;6.40;4.60;;;22.80;1.00;;;;;;4968923;28;20241;-74
2022/06/01 08:36:09;;;;;;;5.47;4.17;;;22.90;1.00;;;;;;4968358;28;20644;-74
2022/06/01 08:38:35;;;;;;;5.43;3.97;;;23.00;1.00;;;;;;4977929;28;20178;-74
2022/06/01 08:41:09;;;;;;;6.90;4.50;;;23.30;1.00;;;;;;4966348;28;20562;-73
2022/06/01 08:43:52;;;;;;;8.30;4.63;;;23.50;1.00;;;;;;4973512;28;20167;-74
2022/06/01 08:46:19;;;;;;;6.40;4.93;;;23.80;1.00;;;;;;4967699;28;20541;-74
2022/06/01 08:48:56;;;;;;;6.93;4.60;;;24.00;1.00;;;;;;4966019;28;20458;-74
2022/06/01 08:51:25;;;;;;;5.70;4.43;;;24.20;1.00;;;;;;4967552;28;20433;-72
2022/06/01 08:53:51;;;;;;;10.13;4.40;;;24.70;1.00;;;;;;4972670;28;20426;-71
2022/06/01 08:56:27;;;;;;;6.93;4.23;;;25.00;1.00;;;;;;4978840;28;20457;-74
2022/06/01 08:59:23;;;;;;;7.30;4.20;;;25.30;1.00;;;;;;4973434;28;20242;-72
2022/06/01 09:02:21;;;;;;;9.83;4.20;;;25.90;1.00;;;;;;4967978;28;20510;-73
2022/06/01 09:04:53;;;;;;;5.30;3.63;;;27.10;1.00;;;;;;4978968;28;20474;-73
2022/06/01 09:07:25;;;;;;;5.50;4.03;;;28.30;1.00;;;;;;4972884;28;20242;-73
2022/06/01 09:10:18;;;;;;;8.40;3.70;;;29.40;1.00;;;;;;4970296;28;20171;-73
2022/06/01 09:12:45;;;;;;;5.35;3.20;;;30.10;1.00;;;;;;4970362;28;20619;-74
2022/06/01 09:15:42;;;;;;;7.80;3.72;;;30.40;1.00;;;;;;4984024;28;20194;-73
2022/06/01 09:18:09;;;;;;;8.52;3.60;;;30.50;1.00;;;;;;4951379;28;20200;-74
2022/06/01 09:23:18;;;;;;;5.30;2.97;;;31.60;1.00;;;;;;4953793;29;20226;-74
2022/06/01 09:25:50;;;;;;;6.90;3.05;;;31.80;1.00;;;;;;4971835;28;20195;-74
2022/06/01 09:28:29;;;;;;;6.70;2.90;;;32.50;1.00;;;;;;4972676;28;20187;-75
2022/06/01 09:31:14;;;;;;;5.40;2.75;;;33.40;1.00;;;;;;4970084;28;20229;-74
2022/06/01 09:33:39;;;;;;;3.85;2.83;;;33.60;1.00;;;;;;4969486;28;20205;-75
2022/06/01 09:36:08;;;;;;;3.65;2.30;;;33.10;1.00;;;;;;4972621;28;20195;-75
2022/06/01 09:38:39;;;;;;;3.83;2.42;;;33.10;1.00;;;;;;4972386;28;20191;-74
2022/06/01 09:41:11;;;;;;;6.75;2.63;;;32.80;1.00;;;;;;4970735;28;20249;-76
2022/06/01 09:43:41;;;;;;;3.78;2.75;;;32.10;1.00;;;;;;4973140;28;20740;-75
2022/06/01 09:46:07;;;;;;;6.55;3.40;;;32.40;1.00;;;;;;4979110;28;20226;-74
2022/06/01 09:48:44;;;;;;;4.03;2.58;;;32.40;1.00;;;;;;4969965;28;20175;-74
2022/06/01 09:51:22;;;;;;;6.10;2.60;;;32.40;1.00;;;;;;4966343;28;20176;-74
2022/06/01 09:54:09;;;;;;;5.90;2.70;;;33.70;1.00;;;;;;4978454;28;20176;-74
2022/06/01 09:56:40;;;;;;;3.60;2.80;;;33.50;1.00;;;;;;4972738;28;20286;-74
2022/06/01 10:07:26;;;;;;;10.57;2.67;;;33.30;1.00;;;;;;4970735;28;20230;-75
2022/06/01 10:09:54;;;;;;;6.63;3.13;;;34.40;1.00;;;;;;4969436;28;20172;-75
2022/06/01 10:12:33;;;;;;;4.60;2.65;;;34.90;1.00;;;;;;4979387;28;20527;-75
2022/06/01 10:15:01;;;;;;;5.13;2.60;;;34.70;1.00;;;;;;4988788;28;20538;-74
2022/06/01 10:17:37;;;;;;;6.18;3.28;;;34.80;1.00;;;;;;4984487;28;20167;-75
2022/06/01 10:20:31;;;;;;;6.07;3.08;;;34.70;1.00;;;;;;4963423;28;20253;-74
2022/06/01 10:23:08;;;;;;;6.22;3.20;;;34.80;1.00;;;;;;4931483;28;20188;-75
2022/06/01 10:25:42;;;;;;;4.90;3.03;;;34.50;1.00;;;;;;4964529;28;20690;-74
2022/06/01 10:28:18;;;;;;;4.18;2.70;;;35.00;1.00;;;;;;4960852;28;20653;-74
2022/06/01 10:30:50;;;;;;;3.70;2.78;;;35.40;1.00;;;;;;4951926;28;20275;-75
2022/06/01 10:33:24;;;;;;;6.00;2.55;;;35.20;1.00;;;;;;4964625;28;20661;-75
2022/06/01 10:35:55;;;;;;;4.97;2.67;;;35.40;1.00;;;;;;4956006;28;20223;-74
2022/06/01 10:38:46;;;;;;;6.35;2.70;;;35.70;1.00;;;;;;4961065;28;20175;-75
2022/06/01 10:41:17;;;;;;;4.13;2.88;;;34.50;1.00;;;;;;4951424;28;20262;-75
2022/06/01 10:44:24;;;;;;;5.05;2.67;;;32.90;1.00;;;;;;4955841;28;20244;-74
2022/06/01 10:47:27;;;;;;;5.47;2.65;;;33.80;1.00;;;;;;4970916;28;20217;-75
2022/06/01 10:49:54;;;;;;;3.40;2.22;;;35.00;1.00;;;;;;4965465;28;20297;-74
2022/06/01 10:52:31;;;;;;;5.68;2.70;;;36.20;1.00;;;;;;4965911;28;20183;-75
2022/06/01 10:55:15;;;;;;;9.27;2.78;;;36.90;1.00;;;;;;4970619;28;20201;-75
2022/06/01 10:57:44;;;;;;;5.22;2.50;;;36.70;1.00;;;;;;4970825;28;20653;-75
2022/06/01 11:00:18;;;;;;;13.90;2.78;;;36.80;1.00;;;;;;4969192;28;20654;-75
2022/06/01 11:02:55;;;;;;;3.70;2.40;;;35.80;1.00;;;;;;4977505;28;20183;-75
2022/06/01 11:05:32;;;;;;;5.07;2.05;;;35.90;1.00;;;;;;4988723;28;20283;-75
2022/06/01 11:08:29;;;;;;;4.03;2.15;;;36.40;1.00;;;;;;4987834;28;20175;-74
2022/06/01 11:11:11;;;;;;;4.95;2.22;;;35.30;1.00;;;;;;4973145;28;20253;-74
2022/06/01 11:14:18;;;;;;;10.52;2.10;;;34.40;1.00;;;;;;4976344;28;20183;-75
2022/06/01 11:17:01;;;;;;;3.80;2.00;;;32.20;1.00;;;;;;4966431;28;20205;-75
2022/06/01 11:19:39;;;;;;;4.38;2.10;;;31.40;1.00;;;;;;4968337;28;20183;-75
2022/06/01 11:23:01;;;;;;;3.25;2.17;;;30.60;1.00;;;;;;4962124;28;20614;-75
2022/06/01 11:25:35;;;;;;;6.43;2.80;;;31.60;1.00;;;;;;4910157;29;20204;-75
2022/06/01 11:28:27;;;;;;;8.18;2.75;;;33.30;1.00;;;;;;4945346;28;20188;-75
2022/06/01 11:31:14;;;;;;;6.70;2.70;;;35.10;1.00;;;;;;4950440;28;20171;-75
2022/06/01 11:33:59;;;;;;;3.63;2.60;;;37.30;1.00;;;;;;4952013;28;20179;-75
2022/06/01 11:36:48;;;;;;;4.68;1.92;;;36.90;1.00;;;;;;4969019;28;20662;-75
2022/06/01 11:39:36;;;;;;;5.30;2.20;;;34.70;1.00;;;;;;4970315;28;20183;-75
2022/06/01 11:42:22;;;;;;;4.75;2.63;;;32.80;1.00;;;;;;4975982;28;20203;-74
2022/06/01 11:45:08;;;;;;;5.40;2.88;;;32.30;1.00;;;;;;4975811;28;20219;-74
2022/06/01 11:47:43;;;;;;;7.07;2.50;;;34.10;1.00;;;;;;4950694;28;20233;-75
2022/06/01 11:50:25;;;;;;;3.45;2.00;;;35.30;1.00;;;;;;4961337;28;20262;-75
2022/06/01 11:52:56;;;;;;;3.03;1.85;;;35.10;1.00;;;;;;4968418;28;20661;-75
2022/06/01 11:55:43;;;;;;;3.83;2.00;;;36.20;1.00;;;;;;4969946;28;20638;-75
2022/06/01 11:58:14;;;;;;;3.25;2.00;;;36.60;1.00;;;;;;4967944;28;20183;-75
2022/06/01 12:00:57;;;;;;;5.28;2.00;;;36.80;1.00;;;;;;4967412;28;20721;-75
2022/06/01 12:03:24;;;;;;;3.83;1.90;;;36.30;1.00;;;;;;4967638;28;20258;-75
2022/06/01 12:06:15;;;;;;;3.20;1.83;;;36.10;1.00;;;;;;4968792;28;20191;-75
2022/06/01 12:08:49;;;;;;;2.88;1.77;;;36.60;1.00;;;;;;4967789;28;20207;-75
2022/06/01 12:11:45;;;;;;;3.78;2.10;;;37.30;1.00;;;;;;4967524;28;20222;-75
2022/06/01 12:14:33;;;;;;;3.13;1.92;;;36.40;1.00;;;;;;4974702;28;20179;-74
2022/06/01 12:17:20;;;;;;;2.88;1.80;;;36.40;1.00;;;;;;4968522;28;20624;-75
2022/06/01 12:19:48;;;;;;;3.50;1.75;;;35.50;1.00;;;;;;4966578;28;20202;-75
2022/06/01 12:28:31;;;;;;;3.85;1.65;;;33.20;1.00;;;;;;4961474;28;20558;-75
2022/06/01 12:28:48;;;;;;;3.63;1.90;;;30.30;1.00;;;;;;4968835;28;20242;-75
2022/06/01 12:31:17;;;;;;;4.13;2.15;;;32.60;1.00;;;;;;4968352;28;20263;-75
2022/06/01 12:34:01;;;;;;;4.68;1.92;;;34.10;1.00;;;;;;4949068;29;20358;-75
2022/06/01 12:36:33;;;;;;;3.22;1.98;;;34.80;1.00;;;;;;4949312;28;20192;-75
2022/06/01 12:38:59;;;;;;;2.70;1.83;;;35.10;1.00;;;;;;4949426;28;20202;-75
2022/06/01 12:41:28;;;;;;;2.75;1.60;;;36.40;1.00;;;;;;4950046;28;20200;-75
2022/06/01 12:43:58;;;;;;;4.30;1.75;;;36.00;1.00;;;;;;4970057;28;20182;-75
2022/06/01 12:46:29;;;;;;;2.47;1.65;;;36.00;1.00;;;;;;4967190;28;20286;-75
2022/06/01 12:49:20;;;;;;;3.78;1.80;;;37.20;1.00;;;;;;4968077;28;20854;-75
2022/06/01 12:51:46;;;;;;;2.70;1.70;;;37.60;1.00;;;;;;4956543;28;20272;-75
2022/06/01 12:54:36;;;;;;;2.53;1.80;;;35.80;1.00;;;;;;4978369;28;20307;-76
2022/06/01 12:57:04;;;;;;;4.22;1.77;;;35.60;1.00;;;;;;4987653;28;20198;-75
2022/06/01 12:59:32;;;;;;;3.10;1.67;;;36.30;1.00;;;;;;4987395;28;20189;-76
2022/06/01 13:02:01;;;;;;;3.65;1.85;;;37.00;1.00;;;;;;4975979;28;20207;-75
2022/06/01 13:04:27;;;;;;;4.57;1.88;;;37.10;1.00;;;;;;4967006;28;20218;-76
2022/06/01 13:06:54;;;;;;;12.57;2.00;;;36.90;1.00;;;;;;4967533;28;20672;-75
2022/06/01 13:09:24;;;;;;;5.05;1.50;;;37.30;1.00;;;;;;4967968;28;20176;-75
2022/06/01 13:12:02;;;;;;;2.65;1.50;;;37.50;1.00;;;;;;4968296;28;20270;-75
2022/06/01 13:14:31;;;;;;;2.60;1.70;;;37.30;1.00;;;;;;4969400;28;20223;-75
2022/06/01 13:17:10;;;;;;;6.45;1.80;;;36.50;1.00;;;;;;4967702;28;20254;-75
2022/06/01 13:19:35;;;;;;;3.05;1.77;;;35.70;1.00;;;;;;4967471;28;20179;-75
2022/06/01 13:22:25;;;;;;;2.72;1.60;;;34.80;1.00;;;;;;4960647;28;20222;-75
2022/06/01 13:25:00;;;;;;;2.92;1.80;;;35.00;1.00;;;;;;4969054;28;20549;-75
2022/06/01 13:27:29;;;;;;;3.63;1.80;;;35.40;1.00;;;;;;4969044;28;20595;-74
2022/06/01 13:29:59;;;;;;;3.72;1.70;;;35.60;1.00;;;;;;4967502;28;20718;-74
2022/06/01 13:32:34;;;;;;;4.10;1.70;;;36.20;1.00;;;;;;4968220;28;20179;-75
2022/06/01 13:35:26;;;;;;;3.13;1.70;;;35.10;1.00;;;;;;4970536;28;20218;-74
2022/06/01 13:37:55;;;;;;;3.65;1.98;;;35.20;1.00;;;;;;4965769;28;20194;-74
2022/06/01 13:40:55;;;;;;;3.75;1.92;;;36.10;1.00;;;;;;4970458;28;20551;-74